sensor_id;sensor_type;location;lat;lon;timestamp;P1;durP1;ratioP1;P2;durP2;ratioP2
57593;SDS011;43423;46.510;6.686;2023-04-19T00:00:25;24.42;;;10.35;;
57593;SDS011;43423;46.510;6.686;2023-04-19T00:03:11;21.05;;;10.88;;
57593;SDS011;43423;46.510;6.686;2023-04-19T00:05:36;23.88;;;10.27;;
57593;SDS011;43423;46.510;6.686;2023-04-19T00:08:06;24.05;;;11.52;;
57593;SDS011;43423;46.510;6.686;2023-04-19T00:10:31;22.33;;;10.80;;
57593;SDS011;43423;46.510;6.686;2023-04-19T00:12:57;24.70;;;11.63;;
57593;SDS011;43423;46.510;6.686;2023-04-19T00:15:22;22.75;;;10.88;;
57593;SDS011;43423;46.510;6.686;2023-04-19T00:17:48;23.33;;;10.45;;
57593;SDS011;43423;46.510;6.686;2023-04-19T00:20:14;23.85;;;10.85;;
57593;SDS011;43423;46.510;6.686;2023-04-19T00:22:39;21.48;;;10.07;;
57593;SDS011;43423;46.510;6.686;2023-04-19T00:25:05;25.23;;;11.75;;
57593;SDS011;43423;46.510;6.686;2023-04-19T00:27:31;21.05;;;9.90;;
57593;SDS011;43423;46.510;6.686;2023-04-19T00:29:57;26.52;;;12.50;;
57593;SDS011;43423;46.510;6.686;2023-04-19T00:32:22;23.33;;;10.75;;
57593;SDS011;43423;46.510;6.686;2023-04-19T00:34:48;24.00;;;10.27;;
57593;SDS011;43423;46.510;6.686;2023-04-19T00:37:14;23.00;;;9.80;;
57593;SDS011;43423;46.510;6.686;2023-04-19T00:39:40;22.40;;;11.23;;
57593;SDS011;43423;46.510;6.686;2023-04-19T00:42:06;21.85;;;11.45;;
57593;SDS011;43423;46.510;6.686;2023-04-19T00:44:31;24.10;;;11.40;;
57593;SDS011;43423;46.510;6.686;2023-04-19T00:46:57;27.88;;;12.27;;
57593;SDS011;43423;46.510;6.686;2023-04-19T00:49:24;22.95;;;11.45;;
57593;SDS011;43423;46.510;6.686;2023-04-19T00:51:50;26.75;;;11.30;;
57593;SDS011;43423;46.510;6.686;2023-04-19T00:54:16;24.73;;;11.35;;
57593;SDS011;43423;46.510;6.686;2023-04-19T00:56:43;26.23;;;10.77;;
57593;SDS011;43423;46.510;6.686;2023-04-19T00:59:09;25.70;;;11.18;;
57593;SDS011;43423;46.510;6.686;2023-04-19T01:01:36;27.92;;;12.35;;
57593;SDS011;43423;46.510;6.686;2023-04-19T01:04:02;27.27;;;12.18;;
57593;SDS011;43423;46.510;6.686;2023-04-19T01:06:29;24.50;;;11.63;;
57593;SDS011;43423;46.510;6.686;2023-04-19T01:08:55;27.60;;;12.15;;
57593;SDS011;43423;46.510;6.686;2023-04-19T01:11:22;27.63;;;11.90;;
57593;SDS011;43423;46.510;6.686;2023-04-19T01:13:48;25.75;;;11.02;;
57593;SDS011;43423;46.510;6.686;2023-04-19T01:16:13;27.63;;;11.75;;
57593;SDS011;43423;46.510;6.686;2023-04-19T01:18:39;31.08;;;12.65;;
57593;SDS011;43423;46.510;6.686;2023-04-19T01:21:05;27.50;;;12.15;;
57593;SDS011;43423;46.510;6.686;2023-04-19T01:23:32;24.50;;;10.90;;
57593;SDS011;43423;46.510;6.686;2023-04-19T01:25:57;24.67;;;11.55;;
57593;SDS011;43423;46.510;6.686;2023-04-19T01:28:23;27.20;;;12.00;;
57593;SDS011;43423;46.510;6.686;2023-04-19T01:30:48;26.75;;;11.70;;
57593;SDS011;43423;46.510;6.686;2023-04-19T01:33:21;27.42;;;11.30;;
57593;SDS011;43423;46.510;6.686;2023-04-19T01:35:47;23.85;;;10.77;;
57593;SDS011;43423;46.510;6.686;2023-04-19T01:38:14;26.35;;;12.00;;
57593;SDS011;43423;46.510;6.686;2023-04-19T01:40:40;32.53;;;12.48;;
57593;SDS011;43423;46.510;6.686;2023-04-19T01:43:06;26.75;;;12.73;;
57593;SDS011;43423;46.510;6.686;2023-04-19T01:45:32;25.20;;;11.45;;
57593;SDS011;43423;46.510;6.686;2023-04-19T01:48:01;30.73;;;12.38;;
57593;SDS011;43423;46.510;6.686;2023-04-19T01:50:29;27.48;;;11.90;;
57593;SDS011;43423;46.510;6.686;2023-04-19T01:52:58;30.92;;;12.70;;
57593;SDS011;43423;46.510;6.686;2023-04-19T01:55:24;30.20;;;13.25;;
57593;SDS011;43423;46.510;6.686;2023-04-19T01:57:50;25.20;;;12.02;;
57593;SDS011;43423;46.510;6.686;2023-04-19T02:00:19;30.58;;;13.45;;
57593;SDS011;43423;46.510;6.686;2023-04-19T02:02:44;26.88;;;12.30;;
57593;SDS011;43423;46.510;6.686;2023-04-19T02:05:10;31.33;;;14.40;;
57593;SDS011;43423;46.510;6.686;2023-04-19T02:07:36;32.25;;;13.30;;
57593;SDS011;43423;46.510;6.686;2023-04-19T02:10:02;28.92;;;12.75;;
57593;SDS011;43423;46.510;6.686;2023-04-19T02:12:28;24.02;;;11.80;;
57593;SDS011;43423;46.510;6.686;2023-04-19T02:14:58;32.13;;;12.95;;
57593;SDS011;43423;46.510;6.686;2023-04-19T02:17:26;28.00;;;12.30;;
57593;SDS011;43423;46.510;6.686;2023-04-19T02:19:52;35.50;;;13.35;;
57593;SDS011;43423;46.510;6.686;2023-04-19T02:22:17;28.88;;;12.57;;
57593;SDS011;43423;46.510;6.686;2023-04-19T02:24:43;31.65;;;13.75;;
57593;SDS011;43423;46.510;6.686;2023-04-19T02:27:09;31.83;;;13.32;;
57593;SDS011;43423;46.510;6.686;2023-04-19T02:29:36;29.20;;;12.65;;
57593;SDS011;43423;46.510;6.686;2023-04-19T02:32:02;31.77;;;13.57;;
57593;SDS011;43423;46.510;6.686;2023-04-19T02:34:30;31.90;;;13.18;;
57593;SDS011;43423;46.510;6.686;2023-04-19T02:36:56;31.58;;;13.38;;
57593;SDS011;43423;46.510;6.686;2023-04-19T02:39:22;35.92;;;13.55;;
57593;SDS011;43423;46.510;6.686;2023-04-19T02:41:48;30.48;;;12.80;;
57593;SDS011;43423;46.510;6.686;2023-04-19T02:44:14;31.73;;;13.88;;
57593;SDS011;43423;46.510;6.686;2023-04-19T02:46:40;32.03;;;13.55;;
57593;SDS011;43423;46.510;6.686;2023-04-19T02:49:05;32.38;;;14.82;;
57593;SDS011;43423;46.510;6.686;2023-04-19T02:51:31;31.42;;;13.90;;
57593;SDS011;43423;46.510;6.686;2023-04-19T02:53:56;35.72;;;13.98;;
57593;SDS011;43423;46.510;6.686;2023-04-19T02:56:22;33.65;;;13.43;;
57593;SDS011;43423;46.510;6.686;2023-04-19T02:58:47;32.97;;;14.85;;
57593;SDS011;43423;46.510;6.686;2023-04-19T03:01:13;29.50;;;13.43;;
57593;SDS011;43423;46.510;6.686;2023-04-19T03:03:38;29.40;;;13.00;;
57593;SDS011;43423;46.510;6.686;2023-04-19T03:06:04;28.98;;;12.63;;
57593;SDS011;43423;46.510;6.686;2023-04-19T03:08:30;33.95;;;13.70;;
57593;SDS011;43423;46.510;6.686;2023-04-19T03:10:55;28.50;;;11.55;;
57593;SDS011;43423;46.510;6.686;2023-04-19T03:13:21;28.10;;;13.43;;
57593;SDS011;43423;46.510;6.686;2023-04-19T03:15:46;28.85;;;13.25;;
57593;SDS011;43423;46.510;6.686;2023-04-19T03:18:12;35.55;;;13.93;;
57593;SDS011;43423;46.510;6.686;2023-04-19T03:20:38;26.48;;;12.07;;
57593;SDS011;43423;46.510;6.686;2023-04-19T03:23:04;28.65;;;12.07;;
57593;SDS011;43423;46.510;6.686;2023-04-19T03:25:29;32.35;;;13.73;;
57593;SDS011;43423;46.510;6.686;2023-04-19T03:27:55;32.05;;;13.35;;
57593;SDS011;43423;46.510;6.686;2023-04-19T03:30:20;32.00;;;12.90;;
57593;SDS011;43423;46.510;6.686;2023-04-19T03:32:46;30.45;;;12.38;;
57593;SDS011;43423;46.510;6.686;2023-04-19T03:35:12;34.13;;;15.43;;
57593;SDS011;43423;46.510;6.686;2023-04-19T03:37:38;37.28;;;16.33;;
57593;SDS011;43423;46.510;6.686;2023-04-19T03:40:03;35.88;;;14.30;;
57593;SDS011;43423;46.510;6.686;2023-04-19T03:42:29;34.20;;;14.95;;
57593;SDS011;43423;46.510;6.686;2023-04-19T03:44:55;29.80;;;13.27;;
57593;SDS011;43423;46.510;6.686;2023-04-19T03:47:21;31.17;;;13.50;;
57593;SDS011;43423;46.510;6.686;2023-04-19T03:49:47;31.52;;;14.38;;
57593;SDS011;43423;46.510;6.686;2023-04-19T03:52:12;30.05;;;13.73;;
57593;SDS011;43423;46.510;6.686;2023-04-19T03:54:38;28.40;;;13.02;;
57593;SDS011;43423;46.510;6.686;2023-04-19T03:57:03;30.77;;;13.50;;
57593;SDS011;43423;46.510;6.686;2023-04-19T03:59:30;32.55;;;13.82;;
57593;SDS011;43423;46.510;6.686;2023-04-19T04:01:55;30.58;;;13.95;;
57593;SDS011;43423;46.510;6.686;2023-04-19T04:04:21;30.52;;;12.55;;
57593;SDS011;43423;46.510;6.686;2023-04-19T04:06:47;29.20;;;13.07;;
57593;SDS011;43423;46.510;6.686;2023-04-19T04:09:12;32.33;;;14.10;;
57593;SDS011;43423;46.510;6.686;2023-04-19T04:11:38;30.23;;;13.18;;
57593;SDS011;43423;46.510;6.686;2023-04-19T04:14:03;32.50;;;14.95;;
57593;SDS011;43423;46.510;6.686;2023-04-19T04:16:29;34.90;;;14.77;;
57593;SDS011;43423;46.510;6.686;2023-04-19T04:18:54;35.10;;;15.23;;
57593;SDS011;43423;46.510;6.686;2023-04-19T04:21:20;29.35;;;13.30;;
57593;SDS011;43423;46.510;6.686;2023-04-19T04:23:46;33.78;;;13.88;;
57593;SDS011;43423;46.510;6.686;2023-04-19T04:26:14;31.63;;;13.88;;
57593;SDS011;43423;46.510;6.686;2023-04-19T04:28:39;36.97;;;14.13;;
57593;SDS011;43423;46.510;6.686;2023-04-19T04:31:05;30.27;;;13.90;;
57593;SDS011;43423;46.510;6.686;2023-04-19T04:33:31;34.45;;;14.65;;
57593;SDS011;43423;46.510;6.686;2023-04-19T04:35:56;29.45;;;14.13;;
57593;SDS011;43423;46.510;6.686;2023-04-19T04:38:23;31.70;;;14.05;;
57593;SDS011;43423;46.510;6.686;2023-04-19T04:40:49;32.95;;;13.57;;
57593;SDS011;43423;46.510;6.686;2023-04-19T04:43:17;32.10;;;14.32;;
57593;SDS011;43423;46.510;6.686;2023-04-19T04:45:45;31.00;;;13.45;;
57593;SDS011;43423;46.510;6.686;2023-04-19T04:48:10;31.50;;;13.40;;
57593;SDS011;43423;46.510;6.686;2023-04-19T04:50:36;34.22;;;15.13;;
57593;SDS011;43423;46.510;6.686;2023-04-19T04:53:02;35.20;;;15.27;;
57593;SDS011;43423;46.510;6.686;2023-04-19T04:55:27;40.85;;;15.07;;
57593;SDS011;43423;46.510;6.686;2023-04-19T04:57:53;27.90;;;13.40;;
57593;SDS011;43423;46.510;6.686;2023-04-19T05:00:18;33.05;;;14.57;;
57593;SDS011;43423;46.510;6.686;2023-04-19T05:02:44;30.23;;;13.23;;
57593;SDS011;43423;46.510;6.686;2023-04-19T05:05:09;30.65;;;13.27;;
57593;SDS011;43423;46.510;6.686;2023-04-19T05:07:38;36.60;;;14.98;;
57593;SDS011;43423;46.510;6.686;2023-04-19T05:10:04;36.13;;;14.85;;
57593;SDS011;43423;46.510;6.686;2023-04-19T05:12:30;32.50;;;13.48;;
57593;SDS011;43423;46.510;6.686;2023-04-19T05:14:55;30.98;;;12.90;;
57593;SDS011;43423;46.510;6.686;2023-04-19T05:17:21;33.70;;;13.65;;
57593;SDS011;43423;46.510;6.686;2023-04-19T05:19:47;36.10;;;14.80;;
57593;SDS011;43423;46.510;6.686;2023-04-19T05:22:12;32.13;;;13.73;;
57593;SDS011;43423;46.510;6.686;2023-04-19T05:24:38;34.28;;;15.20;;
57593;SDS011;43423;46.510;6.686;2023-04-19T05:27:03;34.45;;;14.43;;
57593;SDS011;43423;46.510;6.686;2023-04-19T05:29:30;33.60;;;14.55;;
57593;SDS011;43423;46.510;6.686;2023-04-19T05:31:56;33.17;;;13.15;;
57593;SDS011;43423;46.510;6.686;2023-04-19T05:34:22;33.42;;;14.07;;
57593;SDS011;43423;46.510;6.686;2023-04-19T05:36:47;32.95;;;13.60;;
57593;SDS011;43423;46.510;6.686;2023-04-19T05:39:13;31.25;;;12.82;;
57593;SDS011;43423;46.510;6.686;2023-04-19T05:41:38;35.80;;;14.82;;
57593;SDS011;43423;46.510;6.686;2023-04-19T05:44:04;38.42;;;14.25;;
57593;SDS011;43423;46.510;6.686;2023-04-19T05:46:30;33.03;;;15.23;;
57593;SDS011;43423;46.510;6.686;2023-04-19T05:48:55;32.55;;;14.70;;
57593;SDS011;43423;46.510;6.686;2023-04-19T05:51:21;33.58;;;14.07;;
57593;SDS011;43423;46.510;6.686;2023-04-19T05:53:46;34.65;;;14.55;;
57593;SDS011;43423;46.510;6.686;2023-04-19T05:56:12;41.35;;;15.35;;
57593;SDS011;43423;46.510;6.686;2023-04-19T05:58:37;30.88;;;13.02;;
57593;SDS011;43423;46.510;6.686;2023-04-19T06:01:03;38.70;;;14.82;;
57593;SDS011;43423;46.510;6.686;2023-04-19T06:03:29;38.13;;;15.07;;
57593;SDS011;43423;46.510;6.686;2023-04-19T06:05:54;37.38;;;14.90;;
57593;SDS011;43423;46.510;6.686;2023-04-19T06:08:20;37.95;;;15.43;;
57593;SDS011;43423;46.510;6.686;2023-04-19T06:10:45;36.80;;;14.07;;
57593;SDS011;43423;46.510;6.686;2023-04-19T06:13:14;38.97;;;14.60;;
57593;SDS011;43423;46.510;6.686;2023-04-19T06:15:40;36.70;;;16.08;;
57593;SDS011;43423;46.510;6.686;2023-04-19T06:18:06;32.58;;;14.55;;
57593;SDS011;43423;46.510;6.686;2023-04-19T06:20:38;38.63;;;15.55;;
57593;SDS011;43423;46.510;6.686;2023-04-19T06:23:05;40.53;;;16.48;;
57593;SDS011;43423;46.510;6.686;2023-04-19T06:25:30;43.65;;;16.25;;
57593;SDS011;43423;46.510;6.686;2023-04-19T06:27:56;38.20;;;15.18;;
57593;SDS011;43423;46.510;6.686;2023-04-19T06:30:22;33.47;;;14.35;;
57593;SDS011;43423;46.510;6.686;2023-04-19T06:32:47;40.05;;;15.15;;
57593;SDS011;43423;46.510;6.686;2023-04-19T06:35:13;38.72;;;16.05;;
57593;SDS011;43423;46.510;6.686;2023-04-19T06:37:39;42.80;;;16.20;;
57593;SDS011;43423;46.510;6.686;2023-04-19T06:40:05;35.00;;;15.10;;
57593;SDS011;43423;46.510;6.686;2023-04-19T06:42:33;34.95;;;15.35;;
57593;SDS011;43423;46.510;6.686;2023-04-19T06:44:58;32.80;;;14.10;;
57593;SDS011;43423;46.510;6.686;2023-04-19T06:47:25;36.08;;;16.55;;
57593;SDS011;43423;46.510;6.686;2023-04-19T06:49:50;29.60;;;14.48;;
57593;SDS011;43423;46.510;6.686;2023-04-19T06:52:16;37.53;;;14.70;;
57593;SDS011;43423;46.510;6.686;2023-04-19T06:54:41;30.00;;;13.27;;
57593;SDS011;43423;46.510;6.686;2023-04-19T06:57:11;34.67;;;13.50;;
57593;SDS011;43423;46.510;6.686;2023-04-19T06:59:36;29.23;;;13.35;;
57593;SDS011;43423;46.510;6.686;2023-04-19T07:02:04;33.75;;;14.98;;
57593;SDS011;43423;46.510;6.686;2023-04-19T07:04:29;33.25;;;14.45;;
57593;SDS011;43423;46.510;6.686;2023-04-19T07:06:55;32.80;;;13.77;;
57593;SDS011;43423;46.510;6.686;2023-04-19T07:09:20;27.13;;;12.48;;
57593;SDS011;43423;46.510;6.686;2023-04-19T07:11:46;30.85;;;13.90;;
57593;SDS011;43423;46.510;6.686;2023-04-19T07:14:12;32.05;;;14.18;;
57593;SDS011;43423;46.510;6.686;2023-04-19T07:16:38;30.67;;;14.13;;
57593;SDS011;43423;46.510;6.686;2023-04-19T07:19:03;30.70;;;13.80;;
57593;SDS011;43423;46.510;6.686;2023-04-19T07:21:29;28.60;;;12.73;;
57593;SDS011;43423;46.510;6.686;2023-04-19T07:23:57;34.35;;;14.82;;
57593;SDS011;43423;46.510;6.686;2023-04-19T07:26:23;28.65;;;12.95;;
57593;SDS011;43423;46.510;6.686;2023-04-19T07:28:49;32.25;;;13.50;;
57593;SDS011;43423;46.510;6.686;2023-04-19T07:31:15;27.50;;;14.52;;
57593;SDS011;43423;46.510;6.686;2023-04-19T07:33:41;30.40;;;13.85;;
57593;SDS011;43423;46.510;6.686;2023-04-19T07:36:07;33.10;;;14.07;;
57593;SDS011;43423;46.510;6.686;2023-04-19T07:38:33;30.10;;;13.90;;
57593;SDS011;43423;46.510;6.686;2023-04-19T07:40:59;26.50;;;12.90;;
57593;SDS011;43423;46.510;6.686;2023-04-19T07:43:24;31.88;;;14.00;;
57593;SDS011;43423;46.510;6.686;2023-04-19T07:45:51;35.88;;;14.93;;
57593;SDS011;43423;46.510;6.686;2023-04-19T07:48:17;29.88;;;13.15;;
57593;SDS011;43423;46.510;6.686;2023-04-19T07:50:43;30.23;;;13.18;;
57593;SDS011;43423;46.510;6.686;2023-04-19T07:53:08;25.55;;;12.20;;
57593;SDS011;43423;46.510;6.686;2023-04-19T07:55:34;28.23;;;13.65;;
57593;SDS011;43423;46.510;6.686;2023-04-19T07:58:00;29.67;;;14.50;;
57593;SDS011;43423;46.510;6.686;2023-04-19T08:00:26;33.40;;;14.43;;
57593;SDS011;43423;46.510;6.686;2023-04-19T08:02:54;24.83;;;13.70;;
57593;SDS011;43423;46.510;6.686;2023-04-19T08:05:21;25.70;;;13.38;;
57593;SDS011;43423;46.510;6.686;2023-04-19T08:07:47;28.73;;;13.27;;
57593;SDS011;43423;46.510;6.686;2023-04-19T08:10:13;29.63;;;13.95;;
57593;SDS011;43423;46.510;6.686;2023-04-19T08:12:39;27.38;;;13.32;;
57593;SDS011;43423;46.510;6.686;2023-04-19T08:15:06;24.10;;;12.60;;
57593;SDS011;43423;46.510;6.686;2023-04-19T08:17:32;26.90;;;13.35;;
57593;SDS011;43423;46.510;6.686;2023-04-19T08:19:58;28.25;;;14.18;;
57593;SDS011;43423;46.510;6.686;2023-04-19T08:22:24;25.58;;;12.70;;
57593;SDS011;43423;46.510;6.686;2023-04-19T08:24:50;26.08;;;13.27;;
57593;SDS011;43423;46.510;6.686;2023-04-19T08:27:16;28.02;;;12.60;;
57593;SDS011;43423;46.510;6.686;2023-04-19T08:29:42;28.90;;;13.05;;
57593;SDS011;43423;46.510;6.686;2023-04-19T08:32:08;24.38;;;12.23;;
57593;SDS011;43423;46.510;6.686;2023-04-19T08:34:34;24.77;;;11.55;;
57593;SDS011;43423;46.510;6.686;2023-04-19T08:37:01;27.33;;;14.70;;
57593;SDS011;43423;46.510;6.686;2023-04-19T08:39:27;23.85;;;11.80;;
57593;SDS011;43423;46.510;6.686;2023-04-19T08:41:53;28.50;;;13.77;;
57593;SDS011;43423;46.510;6.686;2023-04-19T08:44:21;24.73;;;11.95;;
57593;SDS011;43423;46.510;6.686;2023-04-19T08:46:47;26.77;;;12.95;;
57593;SDS011;43423;46.510;6.686;2023-04-19T08:49:15;23.40;;;12.07;;
57593;SDS011;43423;46.510;6.686;2023-04-19T08:51:41;24.92;;;13.07;;
57593;SDS011;43423;46.510;6.686;2023-04-19T08:54:07;22.15;;;11.73;;
57593;SDS011;43423;46.510;6.686;2023-04-19T08:56:34;23.15;;;12.00;;
57593;SDS011;43423;46.510;6.686;2023-04-19T08:59:00;25.17;;;13.18;;
57593;SDS011;43423;46.510;6.686;2023-04-19T09:01:26;24.15;;;12.60;;
57593;SDS011;43423;46.510;6.686;2023-04-19T09:03:51;27.33;;;12.98;;
57593;SDS011;43423;46.510;6.686;2023-04-19T09:06:17;24.40;;;12.85;;
57593;SDS011;43423;46.510;6.686;2023-04-19T09:08:43;24.98;;;13.75;;
57593;SDS011;43423;46.510;6.686;2023-04-19T09:11:08;28.40;;;12.93;;
57593;SDS011;43423;46.510;6.686;2023-04-19T09:13:34;24.88;;;12.32;;
57593;SDS011;43423;46.510;6.686;2023-04-19T09:16:02;26.35;;;13.70;;
57593;SDS011;43423;46.510;6.686;2023-04-19T09:18:30;27.08;;;13.65;;
57593;SDS011;43423;46.510;6.686;2023-04-19T09:20:55;23.02;;;12.73;;
57593;SDS011;43423;46.510;6.686;2023-04-19T09:23:25;29.25;;;12.80;;
57593;SDS011;43423;46.510;6.686;2023-04-19T09:25:53;28.63;;;13.35;;
57593;SDS011;43423;46.510;6.686;2023-04-19T09:28:21;24.13;;;12.90;;
57593;SDS011;43423;46.510;6.686;2023-04-19T09:30:48;24.35;;;12.07;;
57593;SDS011;43423;46.510;6.686;2023-04-19T09:33:34;28.15;;;12.27;;
57593;SDS011;43423;46.510;6.686;2023-04-19T09:36:02;24.02;;;12.60;;
57593;SDS011;43423;46.510;6.686;2023-04-19T09:38:28;24.50;;;12.23;;
57593;SDS011;43423;46.510;6.686;2023-04-19T09:41:06;30.17;;;12.88;;
57593;SDS011;43423;46.510;6.686;2023-04-19T09:43:32;26.45;;;13.80;;
57593;SDS011;43423;46.510;6.686;2023-04-19T09:45:58;28.25;;;14.10;;
57593;SDS011;43423;46.510;6.686;2023-04-19T09:48:24;27.02;;;13.30;;
57593;SDS011;43423;46.510;6.686;2023-04-19T09:53:16;27.42;;;13.57;;
57593;SDS011;43423;46.510;6.686;2023-04-19T09:55:43;26.85;;;12.93;;
57593;SDS011;43423;46.510;6.686;2023-04-19T09:58:10;30.10;;;13.27;;
57593;SDS011;43423;46.510;6.686;2023-04-19T10:00:36;24.70;;;13.13;;
57593;SDS011;43423;46.510;6.686;2023-04-19T10:03:02;28.77;;;13.45;;
57593;SDS011;43423;46.510;6.686;2023-04-19T10:05:29;25.33;;;12.40;;
57593;SDS011;43423;46.510;6.686;2023-04-19T10:07:56;27.73;;;13.80;;
57593;SDS011;43423;46.510;6.686;2023-04-19T10:10:23;27.42;;;12.57;;
57593;SDS011;43423;46.510;6.686;2023-04-19T10:12:51;24.83;;;13.38;;
57593;SDS011;43423;46.510;6.686;2023-04-19T10:15:21;22.98;;;11.98;;
57593;SDS011;43423;46.510;6.686;2023-04-19T10:17:48;25.23;;;12.20;;
57593;SDS011;43423;46.510;6.686;2023-04-19T10:20:19;24.75;;;12.57;;
57593;SDS011;43423;46.510;6.686;2023-04-19T10:22:48;25.88;;;13.95;;
57593;SDS011;43423;46.510;6.686;2023-04-19T10:25:14;23.75;;;12.88;;
57593;SDS011;43423;46.510;6.686;2023-04-19T10:27:41;26.95;;;12.60;;
57593;SDS011;43423;46.510;6.686;2023-04-19T10:30:19;27.05;;;12.85;;
57593;SDS011;43423;46.510;6.686;2023-04-19T10:32:52;25.85;;;12.95;;
57593;SDS011;43423;46.510;6.686;2023-04-19T10:43:20;27.85;;;13.70;;
57593;SDS011;43423;46.510;6.686;2023-04-19T10:45:47;23.30;;;12.18;;
57593;SDS011;43423;46.510;6.686;2023-04-19T10:48:35;26.13;;;13.63;;
57593;SDS011;43423;46.510;6.686;2023-04-19T10:51:10;27.83;;;13.25;;
57593;SDS011;43423;46.510;6.686;2023-04-19T10:53:47;25.73;;;13.45;;
57593;SDS011;43423;46.510;6.686;2023-04-19T10:56:55;31.95;;;14.60;;
57593;SDS011;43423;46.510;6.686;2023-04-19T10:59:23;26.40;;;12.73;;
57593;SDS011;43423;46.510;6.686;2023-04-19T11:01:53;24.15;;;13.13;;
57593;SDS011;43423;46.510;6.686;2023-04-19T11:04:21;31.13;;;14.27;;
57593;SDS011;43423;46.510;6.686;2023-04-19T11:06:57;26.60;;;15.00;;
57593;SDS011;43423;46.510;6.686;2023-04-19T11:14:25;27.45;;;14.63;;
57593;SDS011;43423;46.510;6.686;2023-04-19T11:16:52;28.77;;;13.68;;
57593;SDS011;43423;46.510;6.686;2023-04-19T11:19:18;29.35;;;14.07;;
57593;SDS011;43423;46.510;6.686;2023-04-19T11:21:44;29.77;;;14.50;;
57593;SDS011;43423;46.510;6.686;2023-04-19T11:24:11;27.95;;;14.55;;
57593;SDS011;43423;46.510;6.686;2023-04-19T11:26:37;29.73;;;14.27;;
57593;SDS011;43423;46.510;6.686;2023-04-19T11:29:03;32.95;;;14.35;;
57593;SDS011;43423;46.510;6.686;2023-04-19T11:31:33;29.88;;;14.82;;
57593;SDS011;43423;46.510;6.686;2023-04-19T11:33:59;31.58;;;16.10;;
57593;SDS011;43423;46.510;6.686;2023-04-19T11:36:26;28.63;;;14.35;;
57593;SDS011;43423;46.510;6.686;2023-04-19T11:38:52;31.38;;;15.13;;
57593;SDS011;43423;46.510;6.686;2023-04-19T11:41:18;32.40;;;16.25;;
57593;SDS011;43423;46.510;6.686;2023-04-19T11:43:44;31.25;;;14.98;;
57593;SDS011;43423;46.510;6.686;2023-04-19T11:46:11;27.08;;;14.10;;
57593;SDS011;43423;46.510;6.686;2023-04-19T11:48:38;32.22;;;15.30;;
57593;SDS011;43423;46.510;6.686;2023-04-19T11:51:04;31.52;;;14.77;;
57593;SDS011;43423;46.510;6.686;2023-04-19T11:53:30;32.65;;;14.95;;
57593;SDS011;43423;46.510;6.686;2023-04-19T11:56:02;29.73;;;13.98;;
57593;SDS011;43423;46.510;6.686;2023-04-19T12:01:03;31.13;;;15.90;;
57593;SDS011;43423;46.510;6.686;2023-04-19T12:03:30;28.70;;;13.38;;
57593;SDS011;43423;46.510;6.686;2023-04-19T12:05:57;32.28;;;14.90;;
57593;SDS011;43423;46.510;6.686;2023-04-19T12:08:30;27.15;;;14.68;;
57593;SDS011;43423;46.510;6.686;2023-04-19T12:11:18;32.80;;;15.00;;
57593;SDS011;43423;46.510;6.686;2023-04-19T12:13:46;30.92;;;14.57;;
57593;SDS011;43423;46.510;6.686;2023-04-19T12:16:12;27.33;;;13.50;;
57593;SDS011;43423;46.510;6.686;2023-04-19T12:18:48;25.10;;;13.27;;
57593;SDS011;43423;46.510;6.686;2023-04-19T12:23:55;27.20;;;13.65;;
57593;SDS011;43423;46.510;6.686;2023-04-19T12:26:21;39.22;;;15.07;;
57593;SDS011;43423;46.510;6.686;2023-04-19T12:28:47;25.27;;;13.20;;
57593;SDS011;43423;46.510;6.686;2023-04-19T12:31:12;23.13;;;12.55;;
57593;SDS011;43423;46.510;6.686;2023-04-19T12:33:39;31.85;;;15.57;;
57593;SDS011;43423;46.510;6.686;2023-04-19T12:36:04;29.85;;;14.88;;
57593;SDS011;43423;46.510;6.686;2023-04-19T12:38:30;30.48;;;14.65;;
57593;SDS011;43423;46.510;6.686;2023-04-19T12:40:55;29.13;;;14.30;;
57593;SDS011;43423;46.510;6.686;2023-04-19T12:43:21;29.15;;;15.02;;
57593;SDS011;43423;46.510;6.686;2023-04-19T12:45:46;26.75;;;14.20;;
57593;SDS011;43423;46.510;6.686;2023-04-19T12:48:12;31.88;;;15.35;;
57593;SDS011;43423;46.510;6.686;2023-04-19T12:50:37;27.60;;;14.27;;
57593;SDS011;43423;46.510;6.686;2023-04-19T12:53:03;30.33;;;14.75;;
57593;SDS011;43423;46.510;6.686;2023-04-19T12:55:30;27.65;;;14.65;;
57593;SDS011;43423;46.510;6.686;2023-04-19T12:57:56;27.73;;;14.02;;
57593;SDS011;43423;46.510;6.686;2023-04-19T13:00:21;27.80;;;13.10;;
57593;SDS011;43423;46.510;6.686;2023-04-19T13:02:47;28.08;;;14.32;;
57593;SDS011;43423;46.510;6.686;2023-04-19T13:05:13;30.73;;;14.13;;
57593;SDS011;43423;46.510;6.686;2023-04-19T13:07:38;28.92;;;14.77;;
57593;SDS011;43423;46.510;6.686;2023-04-19T13:10:04;29.83;;;14.13;;
57593;SDS011;43423;46.510;6.686;2023-04-19T13:12:31;29.75;;;14.77;;
57593;SDS011;43423;46.510;6.686;2023-04-19T13:14:56;26.13;;;13.15;;
57593;SDS011;43423;46.510;6.686;2023-04-19T13:17:22;30.23;;;15.57;;
57593;SDS011;43423;46.510;6.686;2023-04-19T13:19:47;29.25;;;14.38;;
57593;SDS011;43423;46.510;6.686;2023-04-19T13:22:13;27.85;;;13.75;;
57593;SDS011;43423;46.510;6.686;2023-04-19T13:24:39;27.42;;;14.75;;
57593;SDS011;43423;46.510;6.686;2023-04-19T13:27:05;31.17;;;14.32;;
57593;SDS011;43423;46.510;6.686;2023-04-19T13:29:30;28.48;;;14.35;;
57593;SDS011;43423;46.510;6.686;2023-04-19T13:31:56;31.67;;;14.88;;
57593;SDS011;43423;46.510;6.686;2023-04-19T13:34:22;25.25;;;13.98;;
57593;SDS011;43423;46.510;6.686;2023-04-19T13:36:48;29.75;;;15.20;;
57593;SDS011;43423;46.510;6.686;2023-04-19T13:39:13;29.95;;;14.80;;
57593;SDS011;43423;46.510;6.686;2023-04-19T13:41:39;27.08;;;12.90;;
57593;SDS011;43423;46.510;6.686;2023-04-19T13:44:04;30.52;;;14.80;;
57593;SDS011;43423;46.510;6.686;2023-04-19T13:46:30;29.27;;;14.30;;
57593;SDS011;43423;46.510;6.686;2023-04-19T13:48:56;28.58;;;14.38;;
57593;SDS011;43423;46.510;6.686;2023-04-19T13:51:22;27.65;;;14.18;;
57593;SDS011;43423;46.510;6.686;2023-04-19T13:53:47;31.08;;;15.45;;
57593;SDS011;43423;46.510;6.686;2023-04-19T13:56:13;27.73;;;14.20;;
57593;SDS011;43423;46.510;6.686;2023-04-19T13:58:39;30.00;;;15.05;;
57593;SDS011;43423;46.510;6.686;2023-04-19T14:01:05;33.65;;;15.32;;
57593;SDS011;43423;46.510;6.686;2023-04-19T14:03:30;24.95;;;14.07;;
57593;SDS011;43423;46.510;6.686;2023-04-19T14:05:56;29.38;;;14.18;;
57593;SDS011;43423;46.510;6.686;2023-04-19T14:08:22;30.15;;;14.13;;
57593;SDS011;43423;46.510;6.686;2023-04-19T14:10:50;33.35;;;16.13;;
57593;SDS011;43423;46.510;6.686;2023-04-19T14:13:16;27.77;;;14.02;;
57593;SDS011;43423;46.510;6.686;2023-04-19T14:15:41;32.22;;;14.43;;
57593;SDS011;43423;46.510;6.686;2023-04-19T14:18:07;26.88;;;13.60;;
57593;SDS011;43423;46.510;6.686;2023-04-19T14:20:32;29.10;;;14.30;;
57593;SDS011;43423;46.510;6.686;2023-04-19T14:22:58;28.30;;;13.73;;
57593;SDS011;43423;46.510;6.686;2023-04-19T14:25:25;26.90;;;13.63;;
57593;SDS011;43423;46.510;6.686;2023-04-19T14:27:50;27.05;;;14.63;;
57593;SDS011;43423;46.510;6.686;2023-04-19T14:30:16;24.83;;;12.85;;
57593;SDS011;43423;46.510;6.686;2023-04-19T14:32:41;25.40;;;13.38;;
57593;SDS011;43423;46.510;6.686;2023-04-19T14:35:07;25.00;;;13.57;;
57593;SDS011;43423;46.510;6.686;2023-04-19T14:37:35;26.98;;;13.25;;